This is the latest recevied weather packets stored in our database for station/object VK5ARG-5. If no packets are shown the sender has not sent any weather packets the latest 10 day(s).
| Time | Temp. | Humidity | Pressure | Rain* | Wind** | Luminosity | Snow |
|---|---|---|---|---|---|---|---|
| 1777803923 | 11.67° C | 89% | - | 0 mm | - | - | - |
| 1777802724 | 12.78° C | 82% | - | 0 mm | - | - | - |
| 1777802121 | 12.78° C | 81% | - | 0 mm | - | - | - |
| 1777800921 | 12.78° C | 78% | - | 0 mm | - | - | - |
| 1777796722 | 12.22° C | 85% | - | 0 mm | - | - | - |
| 1777788925 | 15.56° C | 59% | - | 0 mm | - | - | - |
| 1777788322 | 16.11° C | 57% | - | 0 mm | - | - | - |
| 1777786528 | 15.56° C | 62% | - | 0 mm | - | - | - |
| 1777782923 | 15° C | 61% | - | 0 mm | - | - | - |
| 1777775743 | 14.44° C | 65% | - | 0 mm | - | - | - |
| 1777770323 | 12.78° C | 83% | - | 0 mm | - | - | - |
| 1777764946 | 11.67° C | 88% | - | 0 mm | - | - | - |
| 1777763726 | 10.56° C | 90% | - | 0 mm | - | - | - |
| 1777762527 | 10.56° C | 90% | - | 0 mm | - | - | - |
| 1777759547 | 9.44° C | 92% | - | 0 mm | - | - | - |
| 1777755921 | 10° C | 93% | - | 0 mm | - | - | - |
| 1777754720 | 10° C | 94% | - | 0 mm | - | - | - |
| 1777754128 | 10° C | 94% | - | 0 mm | - | - | - |
| 1777751126 | 10° C | 94% | - | 0 mm | - | - | - |
| 1777749323 | 10.56° C | 91% | - | 0 mm | - | - | - |
| 1777747520 | 10.56° C | 90% | - | 0 mm | - | - | - |
| 1777745123 | 10.56° C | 87% | - | 0 mm | - | - | - |
| 1777742122 | 10.56° C | 86% | - | 0 mm | - | - | - |
| 1777737327 | 11.11° C | 85% | - | 0 mm | - | - | - |
| 1777736723 | 11.11° C | 85% | - | 0 mm | - | - | - |
* Rain latest hour (hover to see other rain measurements)
** Current wind speed in m/s (hover to see current wind gust speed)